Polar Discovery — WACW — position and weather

sailwx.info

Track history (hours):
 
Tides and Currents Weather Stations Pressure Air Temp Water Temp Dewpoint Dewpoint Depression Visibility Wind Speed Wind Dir Waves Ship Positions

Polar Discovery

Owner: Polar Tankers, Inc., Bartlesville, OK. More information available from US FCC via Universal Licensing System and Coast Guard Vessel Documentation Center.

Last reported at 2017-Dec-11 15:01 UTC. Time now 2017-Dec-12 21:47 UTC.
Position N 48°24' W 131°20'.

Type: Tanker. MMSI: 369272000.

Date/timePositionNaut miles runAvg speedWind from/ knotsBaromVisibWave heightAir tempDewpointWater temp
2017-Dec-11 15:01N 48°24' W 131°20'015.1
2017-Dec-11 14:59N 48°23' W 131°20'816.1
2017-Dec-11 14:30N 48°16' W 131°14'816.1
2017-Dec-11 14:00N 48°09' W 131°08'816.3
2017-Dec-11 13:30N 48°02' W 131°02'816.3
2017-Dec-11 13:01N 47°55' W 130°56'9541.9
2017-Dec-11 13:00N 47°48' W 130°48'1 2.5 130 / 271014.827.0 10.5 9.511.0
2017-Dec-11 12:30N 47°48' W 130°50'816.2
2017-Dec-11 12:00N 47°41' W 130°44'816.1
2017-Dec-11 11:30N 47°34' W 130°38'816.2
2017-Dec-11 11:00N 47°27' W 130°32'816.1
2017-Dec-11 10:31N 47°20' W 130°26'816.0
2017-Dec-11 10:01N 47°13' W 130°20'816.0
2017-Dec-11 09:31N 47°06' W 130°14'816.2
2017-Dec-11 09:01N 46°59' W 130°09'1016.1
2017-Dec-11 08:24N 46°51' W 130°01'616.1
2017-Dec-11 08:00N 46°45' W 129°57'816.0
2017-Dec-11 07:31N 46°38' W 129°51'816.3
2017-Dec-11 07:00N 46°31' W 129°45'816.3
2017-Dec-11 06:30N 46°24' W 129°39'816.3
2017-Dec-11 06:00N 46°17' W 129°34'816.3
2017-Dec-11 05:30N 46°10' W 129°28'816.6
2017-Dec-11 05:00N 46°03' W 129°22'816.4
2017-Dec-11 04:31N 45°56' W 129°16'916.4
2017-Dec-11 03:57N 45°48' W 129°09'1216.2
2017-Dec-11 03:14N 45°38' W 129°01'416.2
2017-Dec-11 03:00N 45°35' W 128°58'816.4
2017-Dec-11 02:31N 45°28' W 128°52'816.3
2017-Dec-11 02:01N 45°21' W 128°46'816.2
2017-Dec-11 01:30N 45°14' W 128°41'816.4
2017-Dec-11 01:01N 45°07' W 128°35'1427.0
2017-Dec-11 00:29N 44°54' W 128°25'2 3.9
2017-Dec-11 00:01N 44°53' W 128°23'816.4
2017-Dec-10 23:31N 44°46' W 128°17'816.3
2017-Dec-10 23:01N 44°38' W 128°12'816.3
2017-Dec-10 22:31N 44°31' W 128°06'816.4
2017-Dec-10 22:00N 44°24' W 128°00'816.0
2017-Dec-10 21:31N 44°17' W 127°54'816.0
2017-Dec-10 21:01N 44°11' W 127°49'816.2
2017-Dec-10 20:31N 44°04' W 127°43'816.2
2017-Dec-10 20:01N 43°57' W 127°37'1216.2
2017-Dec-10 19:15N 43°46' W 127°29'416.5
2017-Dec-10 19:01N 43°43' W 127°26'816.2
2017-Dec-10 18:31N 43°36' W 127°20'816.0
2017-Dec-10 18:01N 43°29' W 127°15'816.1
2017-Dec-10 17:31N 43°22' W 127°09'816.1
2017-Dec-10 17:00N 43°15' W 127°03'816.1
2017-Dec-10 16:31N 43°08' W 126°58'816.1
2017-Dec-10 16:01N 43°01' W 126°52'816.0
2017-Dec-10 15:31N 42°54' W 126°47'916.1
2017-Dec-10 14:56N 42°46' W 126°41'716.2
2017-Dec-10 14:31N 42°39' W 126°39'816.2
2017-Dec-10 14:01N 42°31' W 126°36'8498.9
2017-Dec-10 14:00N 42°24' W 126°30'3 4.9 050 / 71024.710.8 12.811.912.0
2017-Dec-10 13:22N 42°21' W 126°32'616.8
2017-Dec-10 13:01N 42°15' W 126°29'17416.1
2017-Dec-10 02:09N 39°30' W 125°17'216.1
2017-Dec-10 02:00N 39°28' W 125°15'816.0
2017-Dec-10 01:29N 39°20' W 125°11'2214.7
2017-Dec-10 00:00N 39°00' W 125°00'2617.5 1024.110.8 16.513.515.0
2017-Dec-09 22:31N 38°40' W 124°39'015.5
2017-Dec-09 22:29N 38°40' W 124°38'816.3
2017-Dec-09 22:00N 38°34' W 124°32'816.3
2017-Dec-09 21:30N 38°28' W 124°25'815.9
2017-Dec-09 21:00N 38°21' W 124°19'815.8
2017-Dec-09 20:30N 38°15' W 124°12'815.9
2017-Dec-09 20:00N 38°09' W 124°06'815.9
2017-Dec-09 19:30N 38°03' W 123°59'816.2
2017-Dec-09 19:00N 37°57' W 123°53'816.4
2017-Dec-09 18:30N 37°51' W 123°46'816.4
2017-Dec-09 18:00N 37°44' W 123°39'815.4
2017-Dec-09 17:30N 37°41' W 123°31'815.7
2017-Dec-09 17:00N 37°38' W 123°21'815.7
2017-Dec-09 16:30N 37°36' W 123°12'714.7
2017-Dec-09 16:00N 37°35' W 123°03'816.2
2017-Dec-09 15:30N 37°39' W 122°54'816.0
2017-Dec-09 15:00N 37°44' W 122°46'612.6
2017-Dec-09 14:31N 37°46' W 122°39'815.3
2017-Dec-09 14:01N 37°49' W 122°30'612.0
2017-Dec-09 13:30N 37°48' W 122°22'3 5.1
2017-Dec-09 12:58N 37°45' W 122°21'0 0.1
2017-Dec-09 12:28N 37°45' W 122°21'0 0.0
2017-Dec-09 11:58N 37°45' W 122°21'0 0.0
2017-Dec-09 11:28N 37°45' W 122°21'0 0.0
2017-Dec-09 10:58N 37°45' W 122°21'0 0.0
2017-Dec-09 10:28N 37°45' W 122°21'0 0.0
2017-Dec-09 09:58N 37°45' W 122°21'0 0.0
2017-Dec-09 09:28N 37°45' W 122°21'0 0.0
2017-Dec-09 08:58N 37°45' W 122°21'0 0.0
2017-Dec-09 08:28N 37°45' W 122°21'0 0.0
2017-Dec-09 07:58N 37°45' W 122°21'0 0.1
2017-Dec-09 07:28N 37°45' W 122°21'0 0.4
2017-Dec-09 06:58N 37°46' W 122°21'0 0.2
2017-Dec-09 06:28N 37°46' W 122°21'0 0.1
2017-Dec-09 05:58N 37°46' W 122°21'0 0.0
2017-Dec-09 05:28N 37°46' W 122°21'0 0.0
2017-Dec-09 04:58N 37°46' W 122°21'0 0.0
2017-Dec-09 04:28N 37°46' W 122°21'0 0.0
2017-Dec-09 03:58N 37°46' W 122°21'0 0.0
2017-Dec-09 03:28N 37°46' W 122°21'0 0.0
2017-Dec-09 02:58N 37°46' W 122°21'0 0.0
2017-Dec-09 02:28N 37°46' W 122°21'0 0.0
2017-Dec-09 01:58N 37°46' W 122°21'0 0.1
2017-Dec-09 01:28N 37°46' W 122°21'0 0.0
2017-Dec-09 00:58N 37°46' W 122°21'0 0.1
2017-Dec-09 00:28N 37°46' W 122°21'0 0.4
2017-Dec-08 23:58N 37°45' W 122°21'0 0.2
2017-Dec-08 23:28N 37°45' W 122°21'0 0.1
2017-Dec-08 22:58N 37°45' W 122°21'0 0.0
2017-Dec-08 22:28N 37°45' W 122°21'0 0.0
2017-Dec-08 21:58N 37°45' W 122°21'0 0.0
2017-Dec-08 21:28N 37°45' W 122°21'0 0.0
2017-Dec-08 20:58N 37°45' W 122°21'0 0.0
2017-Dec-08 20:28N 37°45' W 122°21'0 0.0
2017-Dec-08 19:55N 37°45' W 122°21'0 0.0
2017-Dec-08 19:28N 37°45' W 122°21'0 0.0
2017-Dec-08 18:58N 37°45' W 122°21'0 0.3
2017-Dec-08 18:28N 37°45' W 122°21'0 0.4
2017-Dec-08 17:58N 37°46' W 122°21'0 0.5
2017-Dec-08 17:30N 37°46' W 122°21'4 8.9
2017-Dec-08 17:00N 37°50' W 122°24'612.5
2017-Dec-08 16:31N 37°56' W 122°27'713.9
2017-Dec-08 16:00N 38°02' W 122°23'510.0
2017-Dec-08 15:30N 38°04' W 122°17'1 1.0
2017-Dec-08 14:49N 38°03' W 122°16'0 0.0
2017-Dec-08 14:19N 38°03' W 122°16'0 0.0
2017-Dec-08 13:55N 38°03' W 122°16'0 0.0
2017-Dec-08 13:25N 38°03' W 122°16'0 0.0
2017-Dec-08 12:55N 38°03' W 122°16'0 0.0
2017-Dec-07 20:38N 38°03' W 122°16'0 0.4
2017-Dec-07 20:30N 38°03' W 122°16'1 1.8
2017-Dec-07 20:00N 38°04' W 122°17'2 5.0
2017-Dec-07 19:30N 38°03' W 122°20'4 8.4
2017-Dec-07 19:00N 38°01' W 122°24'612.3
2017-Dec-07 18:30N 37°55' W 122°27'1 2.3
2017-Dec-07 18:00N 37°55' W 122°25'1 1.7
2017-Dec-07 17:27N 37°56' W 122°25'0 0.0
2017-Dec-07 17:00N 37°56' W 122°25'0 0.0
2017-Dec-07 16:30N 37°56' W 122°25'0 0.0
2017-Dec-07 16:00N 37°56' W 122°25'0 0.0
2017-Dec-07 15:03N 37°56' W 122°25'0 0.0
2017-Dec-07 15:00N 37°56' W 122°25'0 0.0
2017-Dec-07 14:27N 37°56' W 122°25'0 0.0
2017-Dec-07 13:57N 37°56' W 122°25'0 0.0
2017-Dec-07 13:30N 37°56' W 122°25'0 0.0
2017-Dec-07 13:00N 37°56' W 122°25'0 0.0
2017-Dec-07 12:30N 37°56' W 122°25'0 0.0
2017-Dec-07 12:00N 37°56' W 122°25'0 0.0
2017-Dec-07 11:30N 37°56' W 122°25'0 0.0
2017-Dec-07 11:00N 37°56' W 122°25'0 0.0
2017-Dec-07 10:30N 37°56' W 122°25'0 0.0
2017-Dec-07 10:00N 37°56' W 122°25'0 0.0
2017-Dec-07 09:27N 37°56' W 122°25'0 0.0
2017-Dec-07 09:00N 37°56' W 122°25'0 0.0
2017-Dec-07 08:30N 37°56' W 122°25'0 0.0
2017-Dec-07 08:00N 37°56' W 122°25'0 0.0
2017-Dec-07 07:30N 37°56' W 122°25'0 0.0
2017-Dec-07 07:00N 37°56' W 122°25'0 0.0
2017-Dec-07 06:30N 37°56' W 122°25'0 0.0
2017-Dec-07 05:57N 37°56' W 122°25'0 0.0
2017-Dec-07 05:27N 37°56' W 122°25'0 0.0
2017-Dec-07 04:54N 37°56' W 122°25'0 0.0
2017-Dec-07 04:21N 37°56' W 122°25'0 0.0
2017-Dec-07 03:57N 37°56' W 122°25'0 0.0
2017-Dec-07 03:30N 37°56' W 122°25'0 0.0
2017-Dec-07 03:00N 37°56' W 122°25'0 0.0
2017-Dec-07 02:27N 37°56' W 122°25'0 0.0
2017-Dec-07 01:57N 37°56' W 122°25'0 0.0
2017-Dec-07 01:30N 37°56' W 122°25'0 0.0
2017-Dec-07 01:00N 37°56' W 122°25'0 0.0
2017-Dec-07 00:27N 37°56' W 122°25'0 0.0
2017-Dec-07 00:00N 37°56' W 122°25'0 0.0
2017-Dec-06 23:27N 37°56' W 122°25'0 0.0
2017-Dec-06 23:00N 37°56' W 122°25'0 0.0
2017-Dec-06 22:30N 37°56' W 122°25'0 0.0
2017-Dec-06 22:00N 37°56' W 122°25'1 1.2
2017-Dec-06 21:30N 37°55' W 122°25'4 8.4
2017-Dec-06 21:01N 37°51' W 122°25'10211.3
2017-Dec-06 12:00N 38°18' W 124°30'23615.7 190 / 71023.910.8 12.811.314.0
2017-Dec-05 21:00N 42°06' W 125°48'13216.5 030 / 181025.010.8 11.4 8.612.0
2017-Dec-05 13:00N 44°18' W 126°00'19815.2 050 / 221031.010.8 10.2 5.811.0
2017-Dec-05 00:00N 47°36' W 126°00'14610.8 050 / 21035.210.8 9.8 4.911.0
2017-Dec-04 10:30N 48°40' W 122°43'5 9.9
2017-Dec-04 10:00N 48°45' W 122°46'5 9.6
2017-Dec-04 09:30N 48°50' W 122°44'0 0.0
2017-Dec-03 19:47N 48°50' W 122°43'0 0.4
2017-Dec-03 19:30N 48°49' W 122°43'1 2.1
2017-Dec-03 19:00N 48°48' W 122°44'4 8.4
2017-Dec-03 18:30N 48°44' W 122°45'511.0
2017-Dec-03 18:00N 48°39' W 122°43'5 9.3
2017-Dec-03 17:30N 48°35' W 122°45'510.2
2017-Dec-03 17:01N 48°29' W 122°44'510.5
2017-Dec-03 16:30N 48°24' W 122°47'5 9.3
2017-Dec-03 16:00N 48°22' W 122°53'612.2
2017-Dec-03 15:30N 48°19' W 123°01'713.8
2017-Dec-03 15:01N 48°15' W 123°09'713.6
2017-Dec-03 14:29N 48°11' W 123°18'5 9.6
2017-Dec-03 14:00N 48°10' W 123°25'713.6
2017-Dec-03 13:30N 48°13' W 123°34'815.1
2017-Dec-03 13:00N 48°13' W 123°45'714.9
2017-Dec-03 12:30N 48°14' W 123°57'816.0
2017-Dec-03 12:00N 48°17' W 124°07'815.9
2017-Dec-03 11:30N 48°21' W 124°18'815.5
2017-Dec-03 11:00N 48°24' W 124°29'815.5
2017-Dec-03 10:30N 48°27' W 124°39'714.7
2017-Dec-03 10:00N 48°29' W 124°50'714.7
2017-Dec-03 09:30N 48°29' W 125°01'714.5
2017-Dec-03 09:00N 48°29' W 125°12'714.6
2017-Dec-03 08:30N 48°29' W 125°23'714.6
2017-Dec-03 08:00N 48°29' W 125°34'714.4
2017-Dec-03 07:30N 48°29' W 125°45'714.2
2017-Dec-03 07:00N 48°29' W 125°56'714.0
2017-Dec-03 06:30N 48°29' W 126°06'714.2
2017-Dec-03 06:00N 48°29' W 126°17'714.3
2017-Dec-03 05:29N 48°29' W 126°28'  
Track history (hours):
 
Tides and Currents Weather Stations Pressure Air Temp Water Temp Dewpoint Dewpoint Depression Visibility Wind Speed Wind Dir Waves Ship Positions

Polar Discovery

Owner: Polar Tankers, Inc., Bartlesville, OK. More information available from US FCC via Universal Licensing System and Coast Guard Vessel Documentation Center.

Last reported at 2017-Dec-11 15:01 UTC. Time now 2017-Dec-12 21:47 UTC.
Position N 48°24' W 131°20'.

Type: Tanker. MMSI: 369272000.

Date/timePositionNaut miles runAvg speedWind from/ knotsBaromVisibWave heightAir tempDewpointWater temp
2017-Dec-11 15:01N 48°24' W 131°20'015.1
2017-Dec-11 14:59N 48°23' W 131°20'816.1
2017-Dec-11 14:30N 48°16' W 131°14'816.1
2017-Dec-11 14:00N 48°09' W 131°08'816.3
2017-Dec-11 13:30N 48°02' W 131°02'816.3
2017-Dec-11 13:01N 47°55' W 130°56'9541.9
2017-Dec-11 13:00N 47°48' W 130°48'1 2.5 130 / 271014.827.0 10.5 9.511.0
2017-Dec-11 12:30N 47°48' W 130°50'816.2
2017-Dec-11 12:00N 47°41' W 130°44'816.1
2017-Dec-11 11:30N 47°34' W 130°38'816.2
2017-Dec-11 11:00N 47°27' W 130°32'816.1
2017-Dec-11 10:31N 47°20' W 130°26'816.0
2017-Dec-11 10:01N 47°13' W 130°20'816.0
2017-Dec-11 09:31N 47°06' W 130°14'816.2
2017-Dec-11 09:01N 46°59' W 130°09'1016.1
2017-Dec-11 08:24N 46°51' W 130°01'616.1
2017-Dec-11 08:00N 46°45' W 129°57'816.0
2017-Dec-11 07:31N 46°38' W 129°51'816.3
2017-Dec-11 07:00N 46°31' W 129°45'816.3
2017-Dec-11 06:30N 46°24' W 129°39'816.3
2017-Dec-11 06:00N 46°17' W 129°34'816.3
2017-Dec-11 05:30N 46°10' W 129°28'816.6
2017-Dec-11 05:00N 46°03' W 129°22'816.4
2017-Dec-11 04:31N 45°56' W 129°16'916.4
2017-Dec-11 03:57N 45°48' W 129°09'1216.2
2017-Dec-11 03:14N 45°38' W 129°01'416.2
2017-Dec-11 03:00N 45°35' W 128°58'816.4
2017-Dec-11 02:31N 45°28' W 128°52'816.3
2017-Dec-11 02:01N 45°21' W 128°46'816.2
2017-Dec-11 01:30N 45°14' W 128°41'816.4
2017-Dec-11 01:01N 45°07' W 128°35'1427.0
2017-Dec-11 00:29N 44°54' W 128°25'2 3.9
2017-Dec-11 00:01N 44°53' W 128°23'816.4
2017-Dec-10 23:31N 44°46' W 128°17'816.3
2017-Dec-10 23:01N 44°38' W 128°12'816.3
2017-Dec-10 22:31N 44°31' W 128°06'816.4
2017-Dec-10 22:00N 44°24' W 128°00'816.0
2017-Dec-10 21:31N 44°17' W 127°54'816.0
2017-Dec-10 21:01N 44°11' W 127°49'816.2
2017-Dec-10 20:31N 44°04' W 127°43'816.2
2017-Dec-10 20:01N 43°57' W 127°37'1216.2
2017-Dec-10 19:15N 43°46' W 127°29'416.5
2017-Dec-10 19:01N 43°43' W 127°26'816.2
2017-Dec-10 18:31N 43°36' W 127°20'816.0
2017-Dec-10 18:01N 43°29' W 127°15'816.1
2017-Dec-10 17:31N 43°22' W 127°09'816.1
2017-Dec-10 17:00N 43°15' W 127°03'816.1
2017-Dec-10 16:31N 43°08' W 126°58'816.1
2017-Dec-10 16:01N 43°01' W 126°52'816.0
2017-Dec-10 15:31N 42°54' W 126°47'916.1
2017-Dec-10 14:56N 42°46' W 126°41'716.2
2017-Dec-10 14:31N 42°39' W 126°39'816.2
2017-Dec-10 14:01N 42°31' W 126°36'8498.9
2017-Dec-10 14:00N 42°24' W 126°30'3 4.9 050 / 71024.710.8 12.811.912.0
2017-Dec-10 13:22N 42°21' W 126°32'616.8
2017-Dec-10 13:01N 42°15' W 126°29'17416.1
2017-Dec-10 02:09N 39°30' W 125°17'216.1
2017-Dec-10 02:00N 39°28' W 125°15'816.0
2017-Dec-10 01:29N 39°20' W 125°11'2214.7
2017-Dec-10 00:00N 39°00' W 125°00'2617.5 1024.110.8 16.513.515.0
2017-Dec-09 22:31N 38°40' W 124°39'015.5
2017-Dec-09 22:29N 38°40' W 124°38'816.3
2017-Dec-09 22:00N 38°34' W 124°32'816.3
2017-Dec-09 21:30N 38°28' W 124°25'815.9
2017-Dec-09 21:00N 38°21' W 124°19'815.8
2017-Dec-09 20:30N 38°15' W 124°12'815.9
2017-Dec-09 20:00N 38°09' W 124°06'815.9
2017-Dec-09 19:30N 38°03' W 123°59'816.2
2017-Dec-09 19:00N 37°57' W 123°53'816.4
2017-Dec-09 18:30N 37°51' W 123°46'816.4
2017-Dec-09 18:00N 37°44' W 123°39'815.4
2017-Dec-09 17:30N 37°41' W 123°31'815.7
2017-Dec-09 17:00N 37°38' W 123°21'815.7
2017-Dec-09 16:30N 37°36' W 123°12'714.7
2017-Dec-09 16:00N 37°35' W 123°03'816.2
2017-Dec-09 15:30N 37°39' W 122°54'816.0
2017-Dec-09 15:00N 37°44' W 122°46'612.6
2017-Dec-09 14:31N 37°46' W 122°39'815.3
2017-Dec-09 14:01N 37°49' W 122°30'612.0
2017-Dec-09 13:30N 37°48' W 122°22'3 5.1
2017-Dec-09 12:58N 37°45' W 122°21'0 0.1
2017-Dec-09 12:28N 37°45' W 122°21'0 0.0
2017-Dec-09 11:58N 37°45' W 122°21'0 0.0
2017-Dec-09 11:28N 37°45' W 122°21'0 0.0
2017-Dec-09 10:58N 37°45' W 122°21'0 0.0
2017-Dec-09 10:28N 37°45' W 122°21'0 0.0
2017-Dec-09 09:58N 37°45' W 122°21'0 0.0
2017-Dec-09 09:28N 37°45' W 122°21'0 0.0
2017-Dec-09 08:58N 37°45' W 122°21'0 0.0
2017-Dec-09 08:28N 37°45' W 122°21'0 0.0
2017-Dec-09 07:58N 37°45' W 122°21'0 0.1
2017-Dec-09 07:28N 37°45' W 122°21'0 0.4
2017-Dec-09 06:58N 37°46' W 122°21'0 0.2
2017-Dec-09 06:28N 37°46' W 122°21'0 0.1
2017-Dec-09 05:58N 37°46' W 122°21'0 0.0
2017-Dec-09 05:28N 37°46' W 122°21'0 0.0
2017-Dec-09 04:58N 37°46' W 122°21'0 0.0
2017-Dec-09 04:28N 37°46' W 122°21'0 0.0
2017-Dec-09 03:58N 37°46' W 122°21'0 0.0
2017-Dec-09 03:28N 37°46' W 122°21'0 0.0
2017-Dec-09 02:58N 37°46' W 122°21'0 0.0
2017-Dec-09 02:28N 37°46' W 122°21'0 0.0
2017-Dec-09 01:58N 37°46' W 122°21'0 0.1
2017-Dec-09 01:28N 37°46' W 122°21'0 0.0
2017-Dec-09 00:58N 37°46' W 122°21'0 0.1
2017-Dec-09 00:28N 37°46' W 122°21'0 0.4
2017-Dec-08 23:58N 37°45' W 122°21'0 0.2
2017-Dec-08 23:28N 37°45' W 122°21'0 0.1
2017-Dec-08 22:58N 37°45' W 122°21'0 0.0
2017-Dec-08 22:28N 37°45' W 122°21'0 0.0
2017-Dec-08 21:58N 37°45' W 122°21'0 0.0
2017-Dec-08 21:28N 37°45' W 122°21'0 0.0
2017-Dec-08 20:58N 37°45' W 122°21'0 0.0
2017-Dec-08 20:28N 37°45' W 122°21'0 0.0
2017-Dec-08 19:55N 37°45' W 122°21'0 0.0
2017-Dec-08 19:28N 37°45' W 122°21'0 0.0
2017-Dec-08 18:58N 37°45' W 122°21'0 0.3
2017-Dec-08 18:28N 37°45' W 122°21'0 0.4
2017-Dec-08 17:58N 37°46' W 122°21'0 0.5
2017-Dec-08 17:30N 37°46' W 122°21'4 8.9
2017-Dec-08 17:00N 37°50' W 122°24'612.5
2017-Dec-08 16:31N 37°56' W 122°27'713.9
2017-Dec-08 16:00N 38°02' W 122°23'510.0
2017-Dec-08 15:30N 38°04' W 122°17'1 1.0
2017-Dec-08 14:49N 38°03' W 122°16'0 0.0
2017-Dec-08 14:19N 38°03' W 122°16'0 0.0
2017-Dec-08 13:55N 38°03' W 122°16'0 0.0
2017-Dec-08 13:25N 38°03' W 122°16'0 0.0
2017-Dec-08 12:55N 38°03' W 122°16'0 0.0
2017-Dec-07 20:38N 38°03' W 122°16'0 0.4
2017-Dec-07 20:30N 38°03' W 122°16'1 1.8
2017-Dec-07 20:00N 38°04' W 122°17'2 5.0
2017-Dec-07 19:30N 38°03' W 122°20'4 8.4
2017-Dec-07 19:00N 38°01' W 122°24'612.3
2017-Dec-07 18:30N 37°55' W 122°27'1 2.3
2017-Dec-07 18:00N 37°55' W 122°25'1 1.7
2017-Dec-07 17:27N 37°56' W 122°25'0 0.0
2017-Dec-07 17:00N 37°56' W 122°25'0 0.0
2017-Dec-07 16:30N 37°56' W 122°25'0 0.0
2017-Dec-07 16:00N 37°56' W 122°25'0 0.0
2017-Dec-07 15:03N 37°56' W 122°25'0 0.0
2017-Dec-07 15:00N 37°56' W 122°25'0 0.0
2017-Dec-07 14:27N 37°56' W 122°25'0 0.0
2017-Dec-07 13:57N 37°56' W 122°25'0 0.0
2017-Dec-07 13:30N 37°56' W 122°25'0 0.0
2017-Dec-07 13:00N 37°56' W 122°25'0 0.0
2017-Dec-07 12:30N 37°56' W 122°25'0 0.0
2017-Dec-07 12:00N 37°56' W 122°25'0 0.0
2017-Dec-07 11:30N 37°56' W 122°25'0 0.0
2017-Dec-07 11:00N 37°56' W 122°25'0 0.0
2017-Dec-07 10:30N 37°56' W 122°25'0 0.0
2017-Dec-07 10:00N 37°56' W 122°25'0 0.0
2017-Dec-07 09:27N 37°56' W 122°25'0 0.0
2017-Dec-07 09:00N 37°56' W 122°25'0 0.0
2017-Dec-07 08:30N 37°56' W 122°25'0 0.0
2017-Dec-07 08:00N 37°56' W 122°25'0 0.0
2017-Dec-07 07:30N 37°56' W 122°25'0 0.0
2017-Dec-07 07:00N 37°56' W 122°25'0 0.0
2017-Dec-07 06:30N 37°56' W 122°25'0 0.0
2017-Dec-07 05:57N 37°56' W 122°25'0 0.0
2017-Dec-07 05:27N 37°56' W 122°25'0 0.0
2017-Dec-07 04:54N 37°56' W 122°25'0 0.0
2017-Dec-07 04:21N 37°56' W 122°25'0 0.0
2017-Dec-07 03:57N 37°56' W 122°25'0 0.0
2017-Dec-07 03:30N 37°56' W 122°25'0 0.0
2017-Dec-07 03:00N 37°56' W 122°25'0 0.0
2017-Dec-07 02:27N 37°56' W 122°25'0 0.0
2017-Dec-07 01:57N 37°56' W 122°25'0 0.0
2017-Dec-07 01:30N 37°56' W 122°25'0 0.0
2017-Dec-07 01:00N 37°56' W 122°25'0 0.0
2017-Dec-07 00:27N 37°56' W 122°25'0 0.0
2017-Dec-07 00:00N 37°56' W 122°25'0 0.0
2017-Dec-06 23:27N 37°56' W 122°25'0 0.0
2017-Dec-06 23:00N 37°56' W 122°25'0 0.0
2017-Dec-06 22:30N 37°56' W 122°25'0 0.0
2017-Dec-06 22:00N 37°56' W 122°25'1 1.2
2017-Dec-06 21:30N 37°55' W 122°25'4 8.4
2017-Dec-06 21:01N 37°51' W 122°25'10211.3
2017-Dec-06 12:00N 38°18' W 124°30'23615.7 190 / 71023.910.8 12.811.314.0
2017-Dec-05 21:00N 42°06' W 125°48'13216.5 030 / 181025.010.8 11.4 8.612.0
2017-Dec-05 13:00N 44°18' W 126°00'19815.2 050 / 221031.010.8 10.2 5.811.0
2017-Dec-05 00:00N 47°36' W 126°00'14610.8 050 / 21035.210.8 9.8 4.911.0
2017-Dec-04 10:30N 48°40' W 122°43'5 9.9
2017-Dec-04 10:00N 48°45' W 122°46'5 9.6
2017-Dec-04 09:30N 48°50' W 122°44'0 0.0
2017-Dec-03 19:47N 48°50' W 122°43'0 0.4
2017-Dec-03 19:30N 48°49' W 122°43'1 2.1
2017-Dec-03 19:00N 48°48' W 122°44'4 8.4
2017-Dec-03 18:30N 48°44' W 122°45'511.0
2017-Dec-03 18:00N 48°39' W 122°43'5 9.3
2017-Dec-03 17:30N 48°35' W 122°45'510.2
2017-Dec-03 17:01N 48°29' W 122°44'510.5
2017-Dec-03 16:30N 48°24' W 122°47'5 9.3
2017-Dec-03 16:00N 48°22' W 122°53'612.2
2017-Dec-03 15:30N 48°19' W 123°01'713.8
2017-Dec-03 15:01N 48°15' W 123°09'713.6
2017-Dec-03 14:29N 48°11' W 123°18'5 9.6
2017-Dec-03 14:00N 48°10' W 123°25'713.6
2017-Dec-03 13:30N 48°13' W 123°34'815.1
2017-Dec-03 13:00N 48°13' W 123°45'714.9
2017-Dec-03 12:30N 48°14' W 123°57'816.0
2017-Dec-03 12:00N 48°17' W 124°07'815.9
2017-Dec-03 11:30N 48°21' W 124°18'815.5
2017-Dec-03 11:00N 48°24' W 124°29'815.5
2017-Dec-03 10:30N 48°27' W 124°39'714.7
2017-Dec-03 10:00N 48°29' W 124°50'714.7
2017-Dec-03 09:30N 48°29' W 125°01'714.5
2017-Dec-03 09:00N 48°29' W 125°12'714.6
2017-Dec-03 08:30N 48°29' W 125°23'714.6
2017-Dec-03 08:00N 48°29' W 125°34'714.4
2017-Dec-03 07:30N 48°29' W 125°45'714.2
2017-Dec-03 07:00N 48°29' W 125°56'714.0
2017-Dec-03 06:30N 48°29' W 126°06'714.2
2017-Dec-03 06:00N 48°29' W 126°17'714.3
2017-Dec-03 05:29N 48°29' W 126°28'  

Dump ship's entire track history